Time;durP1;ratioP1;P1;durP2;ratioP2;P2;SDS_P1;SDS_P2;PMS_P1;PMS_P2;Temp;Humidity;BMP_temperature;BMP_pressure;BME280_temperature;BME280_humidity;BME280_pressure;Samples;Min_cycle;Max_cycle;Signal;HPM_P1;HPM_P2
2022/07/26 00:01:14;;;;;;;18.27;3.95;;;18.50;99.90;;;;;;4934278;28;20038;-86
2022/07/26 00:03:40;;;;;;;14.57;2.72;;;18.50;99.90;;;;;;4951321;28;20492;-85
2022/07/26 00:06:06;;;;;;;12.35;2.78;;;18.50;99.90;;;;;;4918548;28;20137;-86
2022/07/26 00:08:32;;;;;;;16.90;3.10;;;18.50;99.90;;;;;;4950012;28;20045;-86
2022/07/26 00:10:57;;;;;;;15.23;3.13;;;18.50;99.90;;;;;;4951432;28;20035;-86
2022/07/26 00:13:23;;;;;;;12.85;3.22;;;18.50;99.90;;;;;;4950564;28;20043;-86
2022/07/26 00:15:50;;;;;;;13.73;3.20;;;18.50;99.90;;;;;;4948765;28;20050;-86
2022/07/26 00:18:16;;;;;;;16.85;3.80;;;18.60;99.90;;;;;;4963236;28;20408;-87
2022/07/26 00:20:42;;;;;;;13.85;3.05;;;18.60;99.90;;;;;;4951677;28;20034;-86
2022/07/26 00:23:09;;;;;;;13.07;3.30;;;18.60;99.90;;;;;;4953512;28;20039;-87
2022/07/26 00:25:35;;;;;;;12.07;3.15;;;18.60;99.90;;;;;;4970144;28;20110;-87
2022/07/26 00:28:01;;;;;;;16.10;3.65;;;18.60;99.90;;;;;;4969872;28;20170;-86
2022/07/26 00:30:26;;;;;;;10.85;2.90;;;18.60;99.90;;;;;;4949558;28;20141;-86
2022/07/26 00:32:52;;;;;;;17.33;4.38;;;18.60;99.90;;;;;;4939407;28;20038;-87
2022/07/26 00:35:19;;;;;;;13.57;3.00;;;18.60;99.90;;;;;;4938468;28;20038;-87
2022/07/26 00:37:45;;;;;;;13.70;3.00;;;18.60;99.90;;;;;;4938214;28;20035;-87
2022/07/26 00:40:12;;;;;;;13.30;3.35;;;18.60;99.90;;;;;;4936571;28;20081;-86
2022/07/26 00:42:38;;;;;;;14.32;3.58;;;18.60;99.90;;;;;;4969307;28;20038;-86
2022/07/26 00:45:07;;;;;;;16.00;3.55;;;18.50;99.90;;;;;;4954871;28;20037;-87
2022/07/26 00:47:33;;;;;;;13.57;3.00;;;18.60;99.90;;;;;;4954528;28;20460;-87
2022/07/26 00:49:58;;;;;;;12.73;3.60;;;18.50;99.90;;;;;;4953248;28;20093;-86
2022/07/26 00:52:24;;;;;;;15.45;3.28;;;18.50;99.90;;;;;;4952880;28;20070;-86
2022/07/26 00:54:53;;;;;;;13.60;3.03;;;18.50;99.90;;;;;;4953926;28;20035;-86
2022/07/26 00:57:20;;;;;;;13.25;2.90;;;18.50;99.90;;;;;;4937438;28;20034;-87
2022/07/26 00:59:46;;;;;;;16.05;2.92;;;18.50;99.90;;;;;;4970452;28;20055;-86
2022/07/26 01:02:13;;;;;;;12.82;2.80;;;18.40;99.90;;;;;;4936130;28;20084;-86
2022/07/26 01:04:39;;;;;;;11.80;2.90;;;18.50;99.90;;;;;;4954146;28;20117;-86
2022/07/26 01:07:06;;;;;;;12.73;3.17;;;18.50;99.90;;;;;;4936772;28;20038;-87
2022/07/26 01:09:31;;;;;;;10.98;2.70;;;18.50;99.90;;;;;;4953759;28;20149;-87
2022/07/26 01:11:58;;;;;;;16.08;3.20;;;18.50;99.90;;;;;;4952430;28;20119;-85
2022/07/26 01:14:24;;;;;;;16.92;3.25;;;18.50;99.90;;;;;;4936517;28;20041;-86
2022/07/26 01:16:51;;;;;;;12.65;3.33;;;18.40;99.90;;;;;;4955127;28;20038;-86
2022/07/26 01:19:17;;;;;;;10.05;2.70;;;18.40;99.90;;;;;;4969650;28;20508;-85
2022/07/26 01:21:44;;;;;;;14.20;3.30;;;18.40;99.90;;;;;;4967901;28;20141;-85
2022/07/26 01:24:10;;;;;;;10.73;2.88;;;18.40;99.90;;;;;;4935147;28;20479;-87
2022/07/26 01:26:36;;;;;;;13.57;3.53;;;18.40;99.90;;;;;;4968201;28;20051;-87
2022/07/26 01:29:03;;;;;;;11.13;3.13;;;18.40;99.90;;;;;;4936184;28;20043;-87
2022/07/26 01:31:29;;;;;;;12.38;3.15;;;18.30;99.90;;;;;;4968265;28;20122;-86
2022/07/26 01:33:54;;;;;;;13.18;3.30;;;18.40;99.90;;;;;;4950002;28;20126;-87
2022/07/26 01:36:20;;;;;;;13.30;3.47;;;18.40;99.90;;;;;;4968484;28;20074;-86
2022/07/26 01:38:46;;;;;;;12.80;3.22;;;;;;;;;;4968348;28;20046;-86
2022/07/26 01:41:12;;;;;;;12.32;3.10;;;18.30;99.90;;;;;;4969793;28;20074;-86
2022/07/26 01:43:38;;;;;;;10.50;2.92;;;18.30;99.90;;;;;;4935827;28;20583;-87
2022/07/26 01:46:06;;;;;;;13.80;3.15;;;18.30;99.90;;;;;;4937023;28;20047;-87
2022/07/26 01:48:32;;;;;;;12.77;2.83;;;18.40;99.90;;;;;;4953118;28;20078;-86
2022/07/26 01:50:58;;;;;;;12.38;3.42;;;18.40;99.90;;;;;;4968497;28;20039;-86
2022/07/26 01:53:23;;;;;;;11.52;2.97;;;18.30;99.90;;;;;;4952954;28;20035;-86
2022/07/26 01:55:49;;;;;;;11.63;3.08;;;18.30;99.90;;;;;;4969058;28;20065;-88
2022/07/26 01:58:15;;;;;;;10.70;3.13;;;18.30;99.90;;;;;;4936578;28;20073;-87
2022/07/26 02:00:40;;;;;;;10.02;2.75;;;18.30;99.90;;;;;;4952238;28;20134;-87
2022/07/26 02:03:06;;;;;;;12.93;3.05;;;18.30;99.90;;;;;;4968743;28;20046;-87
2022/07/26 02:05:32;;;;;;;12.32;3.08;;;18.30;99.90;;;;;;4952403;28;20460;-86
2022/07/26 02:07:57;;;;;;;10.77;2.90;;;18.30;99.90;;;;;;4937010;28;20045;-86
2022/07/26 02:10:23;;;;;;;12.50;2.97;;;18.30;99.90;;;;;;4937577;28;20031;-86
2022/07/26 02:12:49;;;;;;;9.77;3.00;;;18.30;99.90;;;;;;4950807;28;20555;-86
2022/07/26 02:15:15;;;;;;;10.43;2.80;;;18.30;99.90;;;;;;4937163;28;20047;-87
2022/07/26 02:17:41;;;;;;;11.18;2.55;;;17.90;99.90;;;;;;4968448;28;20047;-87
2022/07/26 02:20:08;;;;;;;8.13;2.30;;;18.30;99.90;;;;;;4950387;28;20038;-87
2022/07/26 02:22:34;;;;;;;10.48;2.72;;;18.20;99.90;;;;;;4937338;28;20050;-87
2022/07/26 02:25:00;;;;;;;11.40;2.38;;;18.20;99.90;;;;;;4967378;28;20106;-86
2022/07/26 02:27:25;;;;;;;11.23;2.92;;;18.20;99.90;;;;;;4968042;28;20050;-86
2022/07/26 02:29:51;;;;;;;11.60;3.40;;;18.20;99.90;;;;;;4967923;28;20086;-87
2022/07/26 02:32:17;;;;;;;9.68;2.85;;;18.20;99.90;;;;;;4935077;28;20050;-86
2022/07/26 02:34:43;;;;;;;10.75;2.72;;;18.20;99.90;;;;;;4952903;28;20121;-84
2022/07/26 02:37:08;;;;;;;12.02;3.30;;;18.20;99.90;;;;;;4961409;28;20038;-82
2022/07/26 02:39:34;;;;;;;12.05;3.63;;;18.20;99.90;;;;;;4957086;28;20035;-82
2022/07/26 02:42:01;;;;;;;8.48;2.70;;;18.00;99.90;;;;;;4952215;28;20416;-81
2022/07/26 02:44:28;;;;;;;8.30;2.53;;;17.90;99.90;;;;;;4951222;28;20030;-81
2022/07/26 02:46:53;;;;;;;8.68;2.85;;;17.70;99.90;;;;;;4952493;28;20513;-81
2022/07/26 02:49:20;;;;;;;10.98;2.38;;;17.60;99.90;;;;;;4935641;28;20069;-81
2022/07/26 02:51:46;;;;;;;7.78;2.30;;;17.50;99.90;;;;;;4951249;28;20046;-81
2022/07/26 02:54:12;;;;;;;14.80;2.75;;;17.40;99.90;;;;;;4951527;28;20039;-83
2022/07/26 02:56:38;;;;;;;8.52;2.60;;;17.30;99.90;;;;;;4967907;28;20043;-83
2022/07/26 02:59:05;;;;;;;11.15;2.40;;;17.30;99.90;;;;;;4951061;28;20043;-81
2022/07/26 03:01:33;;;;;;;13.02;2.42;;;17.30;99.90;;;;;;4950342;28;20051;-81
2022/07/26 03:04:00;;;;;;;10.27;2.65;;;17.20;99.90;;;;;;4951477;28;20039;-81
2022/07/26 03:06:26;;;;;;;11.05;2.90;;;17.20;99.90;;;;;;4952381;28;20035;-81
2022/07/26 03:08:51;;;;;;;11.68;2.95;;;17.20;99.90;;;;;;4951577;28;20027;-81
2022/07/26 03:11:17;;;;;;;10.82;3.10;;;17.10;99.90;;;;;;4934487;28;20046;-82
2022/07/26 03:13:43;;;;;;;11.00;2.60;;;17.10;99.90;;;;;;4952216;28;20042;-82
2022/07/26 03:16:09;;;;;;;12.15;2.35;;;17.10;99.90;;;;;;4951058;28;20542;-82
2022/07/26 03:18:35;;;;;;;11.68;2.55;;;17.10;99.90;;;;;;4950328;28;20054;-81
2022/07/26 03:21:01;;;;;;;10.65;2.25;;;17.10;99.90;;;;;;4934970;28;20035;-81
2022/07/26 03:23:26;;;;;;;8.60;2.30;;;17.10;99.90;;;;;;4949961;28;20400;-82
2022/07/26 03:25:52;;;;;;;8.05;2.00;;;17.10;99.90;;;;;;4951208;28;20050;-81
2022/07/26 03:28:18;;;;;;;9.57;2.65;;;17.10;99.90;;;;;;4951297;28;20042;-82
2022/07/26 03:30:43;;;;;;;11.50;2.10;;;17.00;99.90;;;;;;4950433;28;20488;-82
2022/07/26 03:33:09;;;;;;;8.73;1.90;;;17.00;99.90;;;;;;4964908;28;20058;-82
2022/07/26 03:35:35;;;;;;;9.73;2.40;;;17.00;99.90;;;;;;4966461;28;20039;-82
2022/07/26 03:38:00;;;;;;;11.30;2.28;;;17.00;99.90;;;;;;4952263;28;20049;-82
2022/07/26 03:40:27;;;;;;;9.90;2.25;;;17.00;99.90;;;;;;4951557;28;20100;-82
2022/07/26 03:42:53;;;;;;;11.68;2.30;;;17.00;99.90;;;;;;4934950;28;20458;-82
2022/07/26 03:45:19;;;;;;;9.88;2.00;;;17.00;99.90;;;;;;4950146;28;20177;-82
2022/07/26 03:47:45;;;;;;;11.23;1.92;;;17.00;99.90;;;;;;4950458;28;20039;-82
2022/07/26 03:50:12;;;;;;;8.93;2.13;;;17.00;99.90;;;;;;4951282;28;20035;-82
2022/07/26 03:52:38;;;;;;;7.75;1.95;;;17.00;99.90;;;;;;4950652;28;21576;-82
2022/07/26 03:56:27;;;;;;;9.00;1.80;;;17.00;99.90;;;;;;4964851;28;20054;-82
2022/07/26 03:57:51;;;;;;;7.32;1.65;;;16.90;99.90;;;;;;4962697;28;20535;-83
2022/07/26 04:00:16;;;;;;;6.88;1.40;;;16.90;99.90;;;;;;4935362;28;20097;-83
2022/07/26 04:02:42;;;;;;;13.32;1.90;;;16.90;99.90;;;;;;4967397;28;20051;-83
2022/07/26 04:05:09;;;;;;;8.27;1.52;;;16.80;99.90;;;;;;4950633;28;20046;-83
2022/07/26 04:07:41;;;;;;;6.78;1.60;;;16.80;99.90;;;;;;4933153;28;20050;-83
2022/07/26 04:10:07;;;;;;;9.07;2.15;;;16.80;99.90;;;;;;4933493;28;20035;-83
2022/07/26 04:12:33;;;;;;;6.88;1.90;;;16.80;99.90;;;;;;4951949;28;20043;-83
2022/07/26 04:14:58;;;;;;;5.88;1.60;;;16.80;99.90;;;;;;4949675;28;20185;-83
2022/07/26 04:17:24;;;;;;;7.32;1.60;;;16.70;99.90;;;;;;4967371;28;20133;-83
2022/07/26 04:19:50;;;;;;;8.98;1.90;;;16.80;99.90;;;;;;4966250;28;20049;-83
2022/07/26 04:22:15;;;;;;;6.53;1.48;;;16.70;99.90;;;;;;4951471;28;20551;-83
2022/07/26 04:24:41;;;;;;;5.80;1.50;;;16.80;99.90;;;;;;4947352;28;20074;-83
2022/07/26 04:27:07;;;;;;;11.63;1.70;;;16.80;99.90;;;;;;4935252;28;20042;-84
2022/07/26 04:29:32;;;;;;;7.18;1.60;;;16.80;99.90;;;;;;4947242;28;20463;-84
2022/07/26 04:31:58;;;;;;;7.88;1.73;;;16.80;99.90;;;;;;4949572;28;20042;-84
2022/07/26 04:34:24;;;;;;;8.88;1.70;;;16.70;99.90;;;;;;4950426;28;20492;-84
2022/07/26 04:36:49;;;;;;;8.38;1.70;;;16.70;99.90;;;;;;4934477;28;20504;-84
2022/07/26 04:39:15;;;;;;;7.57;1.50;;;16.80;99.90;;;;;;4949055;28;20446;-83
2022/07/26 04:41:41;;;;;;;7.30;1.65;;;16.70;99.90;;;;;;4966106;28;20548;-83
2022/07/26 04:44:06;;;;;;;9.20;2.10;;;16.70;99.90;;;;;;4949422;28;20508;-83
2022/07/26 04:46:32;;;;;;;7.55;1.38;;;16.70;99.90;;;;;;4963759;28;20035;-83
2022/07/26 04:48:58;;;;;;;7.20;1.60;;;16.60;99.90;;;;;;4956359;28;20496;-83
2022/07/26 04:51:25;;;;;;;7.88;1.50;;;16.60;99.90;;;;;;4933214;28;20097;-83
2022/07/26 04:53:51;;;;;;;7.30;1.40;;;16.50;99.90;;;;;;4965971;28;20053;-84
2022/07/26 04:56:16;;;;;;;8.00;1.40;;;16.50;99.90;;;;;;4931622;28;20344;-82
2022/07/26 04:58:42;;;;;;;8.73;1.60;;;16.40;99.90;;;;;;4946978;28;20037;-83
2022/07/26 05:01:07;;;;;;;9.85;1.98;;;16.50;99.90;;;;;;4914862;28;20078;-83
2022/07/26 05:03:33;;;;;;;9.65;1.70;;;16.50;99.90;;;;;;4930543;28;20078;-83
2022/07/26 05:05:59;;;;;;;7.18;1.70;;;16.50;99.90;;;;;;4934132;28;20042;-83
2022/07/26 05:08:25;;;;;;;6.03;1.60;;;16.50;99.90;;;;;;4935894;28;20045;-83
2022/07/26 05:10:50;;;;;;;6.25;1.17;;;16.50;99.90;;;;;;4936628;28;20137;-83
2022/07/26 05:13:16;;;;;;;8.63;1.70;;;16.50;99.90;;;;;;4937240;28;20555;-83
2022/07/26 05:15:42;;;;;;;10.98;1.98;;;16.50;99.90;;;;;;4955602;28;21056;-83
2022/07/26 05:18:08;;;;;;;5.70;1.30;;;16.50;99.90;;;;;;4937676;28;20078;-84
2022/07/26 05:20:35;;;;;;;5.72;1.40;;;16.50;99.90;;;;;;4968057;28;20416;-83
2022/07/26 05:23:01;;;;;;;8.85;1.95;;;16.50;99.90;;;;;;4935927;28;20090;-83
2022/07/26 05:25:27;;;;;;;5.30;1.48;;;16.50;99.90;;;;;;4937154;28;20116;-84
2022/07/26 05:27:53;;;;;;;11.85;1.80;;;16.60;99.90;;;;;;4953153;28;20038;-84
2022/07/26 05:30:19;;;;;;;11.32;1.50;;;16.60;99.90;;;;;;4952858;28;20039;-84
2022/07/26 05:32:46;;;;;;;6.38;1.38;;;16.60;99.90;;;;;;4967397;28;20138;-84
2022/07/26 05:35:12;;;;;;;4.65;1.35;;;16.60;99.90;;;;;;4963935;28;20125;-84
2022/07/26 05:37:38;;;;;;;4.43;1.23;;;16.60;99.90;;;;;;4964721;28;20126;-84
2022/07/26 05:40:04;;;;;;;7.60;1.40;;;16.50;99.90;;;;;;4935991;28;20031;-84
2022/07/26 05:42:30;;;;;;;7.53;1.30;;;16.50;99.90;;;;;;4953090;28;20555;-84
2022/07/26 05:44:56;;;;;;;6.22;1.50;;;16.40;99.90;;;;;;4948646;28;20038;-85
2022/07/26 05:47:22;;;;;;;6.90;1.30;;;16.30;99.90;;;;;;4969243;28;20090;-84
2022/07/26 05:49:47;;;;;;;6.22;1.30;;;16.30;99.90;;;;;;4937801;28;20146;-84
2022/07/26 05:52:13;;;;;;;7.20;1.40;;;16.30;99.90;;;;;;4953484;28;20031;-84
2022/07/26 05:54:39;;;;;;;6.60;1.75;;;16.10;99.90;;;;;;4937513;28;20054;-84
2022/07/26 05:57:04;;;;;;;7.28;1.42;;;16.10;99.90;;;;;;4967890;28;20050;-84
2022/07/26 05:59:31;;;;;;;6.80;1.70;;;16.10;99.90;;;;;;4953432;28;20081;-84
2022/07/26 06:01:56;;;;;;;5.55;1.52;;;16.10;99.90;;;;;;4947855;28;20791;-84
2022/07/26 06:04:23;;;;;;;5.22;1.42;;;16.20;99.90;;;;;;4937049;28;20054;-84
2022/07/26 06:06:49;;;;;;;9.15;1.75;;;16.30;99.90;;;;;;4936218;28;20055;-84
2022/07/26 06:09:15;;;;;;;7.03;1.40;;;16.30;99.90;;;;;;4967187;28;20134;-84
2022/07/26 06:11:41;;;;;;;5.70;1.50;;;16.30;99.90;;;;;;4952080;28;20070;-85
2022/07/26 06:14:06;;;;;;;7.75;1.60;;;16.40;99.90;;;;;;4936820;28;20070;-84
2022/07/26 06:16:32;;;;;;;8.38;1.70;;;16.40;99.90;;;;;;4952070;28;20380;-85
2022/07/26 06:18:58;;;;;;;6.15;1.50;;;16.50;99.90;;;;;;4950277;28;20045;-85
2022/07/26 06:21:23;;;;;;;6.25;1.45;;;16.50;99.90;;;;;;4951664;28;20039;-84
2022/07/26 06:23:50;;;;;;;6.63;1.58;;;16.50;99.90;;;;;;4951890;28;20065;-84
2022/07/26 06:26:16;;;;;;;7.18;1.60;;;16.60;99.90;;;;;;4970993;28;20189;-86
2022/07/26 06:28:42;;;;;;;7.63;1.73;;;16.70;99.90;;;;;;4952300;28;20045;-86
2022/07/26 06:31:09;;;;;;;7.70;1.50;;;16.70;99.90;;;;;;4935218;28;20574;-86
2022/07/26 06:33:35;;;;;;;4.78;1.35;;;16.80;99.90;;;;;;4968903;28;20483;-86
2022/07/26 06:36:01;;;;;;;7.43;1.45;;;16.80;99.90;;;;;;4950580;28;20054;-86
2022/07/26 06:38:27;;;;;;;6.03;1.50;;;16.90;99.90;;;;;;4951819;28;20035;-87
2022/07/26 06:40:53;;;;;;;9.88;1.90;;;16.90;99.90;;;;;;4952784;28;20106;-86
2022/07/26 06:43:19;;;;;;;6.28;1.55;;;16.80;99.90;;;;;;4939692;28;20172;-86
2022/07/26 06:45:45;;;;;;;8.45;1.60;;;16.80;99.90;;;;;;4964051;28;20027;-86
2022/07/26 06:48:11;;;;;;;9.60;1.83;;;16.80;99.90;;;;;;4955088;28;20676;-86
2022/07/26 06:50:37;;;;;;;9.20;1.80;;;16.90;99.90;;;;;;4936667;28;20035;-86
2022/07/26 06:53:03;;;;;;;7.28;1.70;;;16.90;99.90;;;;;;4935699;28;20115;-86
2022/07/26 06:55:28;;;;;;;7.40;1.67;;;16.90;99.90;;;;;;4934689;28;20555;-87
2022/07/26 06:57:54;;;;;;;6.10;1.40;;;16.90;99.90;;;;;;4934574;28;20053;-85
2022/07/26 07:00:20;;;;;;;10.55;2.25;;;16.90;99.90;;;;;;4967672;28;20609;-85
2022/07/26 07:02:46;;;;;;;6.05;1.70;;;17.00;99.90;;;;;;4920352;28;20043;-88
2022/07/26 07:05:12;;;;;;;6.35;1.30;;;17.10;99.90;;;;;;4952329;28;20026;-86
2022/07/26 07:07:37;;;;;;;7.05;1.70;;;17.20;99.90;;;;;;4948766;28;20443;-86
2022/07/26 07:10:05;;;;;;;10.65;1.48;;;17.20;99.90;;;;;;4951348;28;20492;-85
2022/07/26 07:12:30;;;;;;;7.18;1.27;;;17.20;99.90;;;;;;4967231;28;20492;-85
2022/07/26 07:14:56;;;;;;;6.50;1.33;;;17.20;99.90;;;;;;4949594;28;20050;-88
2022/07/26 07:17:22;;;;;;;3.75;1.20;;;17.20;99.90;;;;;;4967943;28;20046;-86
2022/07/26 07:19:48;;;;;;;7.45;1.27;;;17.20;99.90;;;;;;4934646;28;20101;-87
2022/07/26 07:22:14;;;;;;;8.95;1.13;;;17.20;99.90;;;;;;4951366;28;20514;-87
2022/07/26 07:24:40;;;;;;;5.85;1.40;;;17.20;99.90;;;;;;4951636;28;20753;-87
2022/07/26 07:27:06;;;;;;;5.45;1.10;;;17.20;99.90;;;;;;4935212;28;20043;-87
2022/07/26 07:29:32;;;;;;;7.90;1.60;;;17.20;99.90;;;;;;4966741;28;20089;-88
2022/07/26 07:31:58;;;;;;;3.78;1.10;;;17.20;99.90;;;;;;4935167;28;20042;-87
2022/07/26 07:34:24;;;;;;;5.95;1.20;;;17.00;99.90;;;;;;4967081;28;20480;-88
2022/07/26 07:36:51;;;;;;;7.47;1.35;;;17.30;99.90;;;;;;4967922;28;20046;-87
2022/07/26 07:39:17;;;;;;;7.47;1.50;;;17.40;99.90;;;;;;4949980;28;20039;-88
2022/07/26 07:41:47;;;;;;;8.85;1.60;;;17.50;99.90;;;;;;4951045;28;20464;-87
2022/07/26 07:44:13;;;;;;;6.25;1.30;;;17.60;99.90;;;;;;4950744;28;20118;-87
2022/07/26 07:46:39;;;;;;;6.18;1.50;;;17.70;99.90;;;;;;4951056;28;20177;-87
2022/07/26 07:49:05;;;;;;;9.52;1.70;;;17.60;99.90;;;;;;4946551;28;20555;-88
2022/07/26 07:51:32;;;;;;;7.90;1.50;;;17.60;99.90;;;;;;4933339;28;20399;-89
2022/07/26 07:53:58;;;;;;;9.18;1.73;;;17.50;99.90;;;;;;4952719;28;20468;-86
2022/07/26 07:56:24;;;;;;;8.13;1.80;;;17.40;99.90;;;;;;4935696;28;20051;-86
2022/07/26 07:58:50;;;;;;;12.02;1.83;;;17.40;99.90;;;;;;4948824;28;20538;-88
2022/07/26 08:01:16;;;;;;;6.78;1.70;;;17.50;99.90;;;;;;4932286;28;20497;-86
2022/07/26 08:03:41;;;;;;;6.90;1.70;;;17.50;99.90;;;;;;4931701;28;20424;-88
2022/07/26 08:06:08;;;;;;;8.30;1.60;;;17.40;99.90;;;;;;4950271;28;20042;-88
2022/07/26 08:08:35;;;;;;;5.45;1.50;;;17.40;99.90;;;;;;4965624;28;20126;-87
2022/07/26 08:11:01;;;;;;;7.13;1.55;;;17.40;99.90;;;;;;4966976;28;20038;-89
2022/07/26 08:13:27;;;;;;;7.95;1.67;;;17.40;99.90;;;;;;4950558;28;20061;-87
2022/07/26 08:15:54;;;;;;;4.95;1.33;;;17.50;99.90;;;;;;4950144;28;20046;-88
2022/07/26 08:18:21;;;;;;;7.50;1.63;;;17.50;99.90;;;;;;4947986;28;20046;-87
2022/07/26 08:20:46;;;;;;;7.72;1.55;;;17.60;99.90;;;;;;4933810;28;20041;-88
2022/07/26 08:23:12;;;;;;;6.72;1.30;;;17.60;99.90;;;;;;4918830;28;20051;-88
2022/07/26 08:25:38;;;;;;;5.60;1.40;;;17.80;99.90;;;;;;4951645;28;20054;-88
2022/07/26 08:28:04;;;;;;;6.40;1.60;;;17.80;99.90;;;;;;4945743;28;20051;-88
2022/07/26 08:30:30;;;;;;;6.68;1.45;;;18.00;99.90;;;;;;4949673;28;20050;-90
2022/07/26 08:32:56;;;;;;;6.88;1.60;;;18.00;99.90;;;;;;4950098;28;20041;-90
2022/07/26 08:35:22;;;;;;;10.43;1.80;;;18.10;99.90;;;;;;4933130;28;20039;-89
2022/07/26 08:37:48;;;;;;;7.95;1.52;;;18.10;99.90;;;;;;4934170;28;20511;-90
2022/07/26 08:40:13;;;;;;;7.10;1.63;;;18.30;99.90;;;;;;4951328;28;20081;-89
2022/07/26 08:42:39;;;;;;;6.28;1.48;;;18.30;99.90;;;;;;4934655;28;20058;-90
2022/07/26 08:45:05;;;;;;;10.13;1.70;;;18.30;99.90;;;;;;4938833;28;20110;-89
2022/07/26 08:47:32;;;;;;;6.95;1.80;;;18.30;99.90;;;;;;4955385;28;20042;-89
2022/07/26 08:49:57;;;;;;;9.07;1.88;;;18.40;99.90;;;;;;4955079;28;20436;-90
2022/07/26 08:52:23;;;;;;;9.98;1.77;;;18.50;99.90;;;;;;4952426;28;20125;-88
2022/07/26 08:54:51;;;;;;;8.27;1.60;;;18.30;99.90;;;;;;4954036;28;20415;-88
2022/07/26 08:57:16;;;;;;;6.35;1.75;;;18.20;99.90;;;;;;4968635;28;20138;-88
2022/07/26 08:59:43;;;;;;;9.57;1.80;;;18.10;99.90;;;;;;4953420;28;20547;-88
2022/07/26 09:02:11;;;;;;;9.45;1.85;;;18.10;99.90;;;;;;4936745;28;20052;-87
2022/07/26 09:04:39;;;;;;;6.15;1.60;;;18.00;99.90;;;;;;4969029;28;20045;-89
2022/07/26 09:07:06;;;;;;;8.25;2.28;;;18.10;99.90;;;;;;4952827;28;20486;-91
2022/07/26 09:09:37;;;;;;;8.95;1.70;;;18.20;99.90;;;;;;4969626;28;20043;-88
2022/07/26 09:12:18;;;;;;;7.70;1.80;;;18.20;99.90;;;;;;4954365;28;20078;-88
2022/07/26 09:14:46;;;;;;;9.98;2.35;;;18.20;99.90;;;;;;4953835;28;20041;-88
2022/07/26 09:17:12;;;;;;;9.13;2.00;;;18.10;99.90;;;;;;4951801;28;20043;-89
2022/07/26 09:19:39;;;;;;;9.75;1.95;;;18.00;99.90;;;;;;4952514;28;20094;-85
2022/07/26 09:22:12;;;;;;;7.55;1.85;;;17.90;99.90;;;;;;4968936;28;20126;-86
2022/07/26 09:24:40;;;;;;;10.02;2.28;;;17.80;99.90;;;;;;4954531;28;20142;-88
2022/07/26 09:27:08;;;;;;;9.27;2.25;;;17.80;99.90;;;;;;4954315;28;20039;-88
2022/07/26 09:29:52;;;;;;;9.65;1.98;;;17.90;99.90;;;;;;4953063;28;20074;-87
2022/07/26 09:32:25;;;;;;;10.02;1.90;;;17.90;99.90;;;;;;4966641;28;20142;-87
2022/07/26 09:35:07;;;;;;;9.02;1.95;;;18.00;99.90;;;;;;4972729;28;20377;-88
2022/07/26 09:37:42;;;;;;;10.00;2.20;;;18.10;99.90;;;;;;4950685;28;20050;-88
2022/07/26 09:40:13;;;;;;;10.85;2.47;;;18.10;99.90;;;;;;4967011;28;20043;-88
2022/07/26 09:42:56;;;;;;;9.73;2.20;;;18.20;99.90;;;;;;4952970;28;20039;-88
2022/07/26 09:45:24;;;;;;;11.25;2.38;;;18.20;99.90;;;;;;4968314;28;20097;-89
2022/07/26 09:47:50;;;;;;;13.23;2.40;;;18.20;99.90;;;;;;4953296;28;20043;-88
2022/07/26 09:50:21;;;;;;;10.38;2.22;;;18.10;99.90;;;;;;4950024;28;20191;-88
2022/07/26 09:53:06;;;;;;;12.98;2.50;;;18.10;99.90;;;;;;4952690;28;20054;-88
2022/07/26 09:55:32;;;;;;;10.48;2.80;;;17.90;99.90;;;;;;4951869;28;20047;-89
2022/07/26 09:58:02;;;;;;;14.30;3.03;;;17.80;99.90;;;;;;4969613;28;20440;-89
2022/07/26 10:00:32;;;;;;;12.15;2.60;;;17.80;99.90;;;;;;4950666;28;20089;-89
2022/07/26 10:02:58;;;;;;;12.27;2.72;;;17.90;99.90;;;;;;4937648;28;20181;-89
2022/07/26 10:05:24;;;;;;;12.52;2.47;;;18.00;99.90;;;;;;4969345;28;20038;-87
2022/07/26 10:07:51;;;;;;;17.02;2.45;;;18.10;99.90;;;;;;4935315;28;20130;-90
2022/07/26 10:10:54;;;;;;;15.05;2.38;;;18.20;99.90;;;;;;4952348;28;20075;-89
2022/07/26 10:13:21;;;;;;;14.65;3.00;;;18.40;99.90;;;;;;4952228;28;20125;-91
2022/07/26 10:15:49;;;;;;;9.70;2.45;;;18.40;99.90;;;;;;4937445;28;20050;-88
2022/07/26 10:18:37;;;;;;;13.52;2.25;;;18.40;99.90;;;;;;4937569;28;20100;-87
2022/07/26 10:21:24;;;;;;;10.32;2.15;;;18.20;99.90;;;;;;4937819;28;20050;-88
2022/07/26 10:24:01;;;;;;;12.15;2.65;;;18.30;99.90;;;;;;4966903;28;20054;-88
2022/07/26 10:26:33;;;;;;;11.15;2.20;;;18.30;99.90;;;;;;4954134;28;20053;-87
2022/07/26 10:29:22;;;;;;;11.77;2.42;;;18.50;99.90;;;;;;4950462;28;20090;-87
2022/07/26 10:32:12;;;;;;;11.23;1.90;;;18.70;99.90;;;;;;4951276;28;20495;-86
2022/07/26 10:34:39;;;;;;;9.68;1.98;;;18.80;99.90;;;;;;4965680;28;20524;-88
2022/07/26 10:37:10;;;;;;;8.05;1.85;;;18.90;99.90;;;;;;4967299;28;20042;-88
2022/07/26 10:39:37;;;;;;;8.50;2.17;;;19.00;99.90;;;;;;4952925;28;20194;-88
2022/07/26 10:42:08;;;;;;;8.48;1.95;;;19.30;99.90;;;;;;4964662;28;20504;-88
2022/07/26 10:44:37;;;;;;;10.60;2.10;;;19.50;99.90;;;;;;4952421;28;20090;-88
2022/07/26 10:47:11;;;;;;;8.80;1.80;;;19.80;99.90;;;;;;4952495;28;20039;-87
2022/07/26 10:49:56;;;;;;;8.77;1.90;;;20.00;99.90;;;;;;4952735;28;20043;-88
2022/07/26 10:52:25;;;;;;;11.00;2.03;;;20.10;99.90;;;;;;4966736;28;20085;-87
2022/07/26 10:55:03;;;;;;;11.20;2.42;;;20.00;99.90;;;;;;4952815;28;20117;-88
2022/07/26 10:57:40;;;;;;;11.88;2.30;;;20.20;99.90;;;;;;4968595;28;20065;-86
2022/07/26 11:00:15;;;;;;;9.18;2.03;;;20.10;99.90;;;;;;4952205;28;20097;-88
2022/07/26 11:02:42;;;;;;;7.85;1.83;;;19.90;99.90;;;;;;4951189;28;20035;-89
2022/07/26 11:05:14;;;;;;;10.20;2.28;;;19.70;99.90;;;;;;4969840;28;20074;-88
2022/07/26 11:07:51;;;;;;;9.95;1.77;;;20.00;99.90;;;;;;4968748;28;20042;-88
2022/07/26 11:10:25;;;;;;;10.50;2.28;;;20.10;99.90;;;;;;4969259;28;20038;-87
2022/07/26 11:13:01;;;;;;;11.13;1.70;;;20.00;99.90;;;;;;4976934;28;20411;-88
2022/07/26 11:15:27;;;;;;;9.38;2.10;;;20.10;99.90;;;;;;4971503;28;20039;-87
2022/07/26 11:18:31;;;;;;;5.78;1.63;;;20.10;99.90;;;;;;4965979;28;20038;-89
2022/07/26 11:21:08;;;;;;;8.93;1.98;;;19.90;99.90;;;;;;4948439;28;20129;-88
2022/07/26 11:23:36;;;;;;;8.63;1.75;;;19.90;99.90;;;;;;4964301;28;20508;-87
2022/07/26 11:26:24;;;;;;;8.63;1.70;;;19.90;99.90;;;;;;4965109;28;20035;-88
2022/07/26 11:28:54;;;;;;;10.07;1.80;;;20.00;99.90;;;;;;4966121;28;20050;-89
2022/07/26 11:31:24;;;;;;;8.07;1.60;;;19.80;99.90;;;;;;4950181;28;20039;-90
2022/07/26 11:33:51;;;;;;;9.32;1.50;;;19.70;99.90;;;;;;4950476;28;20050;-88
2022/07/26 11:36:30;;;;;;;7.53;1.70;;;19.90;99.90;;;;;;4966601;28;20125;-87
2022/07/26 11:38:56;;;;;;;7.90;1.67;;;20.10;99.90;;;;;;4951628;28;20034;-90
2022/07/26 11:41:24;;;;;;;10.00;1.63;;;20.30;99.90;;;;;;4950829;28;20105;-88
2022/07/26 11:43:51;;;;;;;9.27;1.70;;;20.30;99.90;;;;;;4967851;28;20134;-89
2022/07/26 11:46:17;;;;;;;6.45;1.85;;;20.20;99.90;;;;;;4933038;28;20035;-89
2022/07/26 11:48:51;;;;;;;6.65;1.50;;;20.10;99.90;;;;;;4935560;28;20114;-90
2022/07/26 11:51:22;;;;;;;9.07;1.67;;;20.00;99.90;;;;;;4951825;28;20042;-88
2022/07/26 11:53:50;;;;;;;6.78;1.60;;;19.90;99.90;;;;;;4949745;28;20049;-88
2022/07/26 11:56:17;;;;;;;9.18;1.60;;;19.70;99.90;;;;;;4934477;28;20054;-87
2022/07/26 11:58:46;;;;;;;9.05;1.75;;;19.80;99.90;;;;;;4966933;28;20097;-87
2022/07/26 12:01:15;;;;;;;5.63;1.40;;;20.00;99.90;;;;;;4950415;28;20114;-89
2022/07/26 12:03:44;;;;;;;7.97;1.50;;;20.10;99.90;;;;;;4937118;28;20042;-88
2022/07/26 12:06:13;;;;;;;8.18;1.60;;;20.20;99.90;;;;;;4965165;28;20286;-89
2022/07/26 12:08:44;;;;;;;8.77;1.60;;;20.30;99.90;;;;;;4951180;28;20039;-89
2022/07/26 12:11:11;;;;;;;10.00;1.67;;;20.30;99.90;;;;;;4951675;28;20050;-88
2022/07/26 12:14:00;;;;;;;7.25;1.60;;;20.20;99.90;;;;;;4952619;28;20046;-86
2022/07/26 12:16:43;;;;;;;8.38;1.52;;;20.20;99.90;;;;;;4968428;28;20062;-89
2022/07/26 12:19:16;;;;;;;8.20;1.48;;;20.10;99.90;;;;;;4955944;28;20386;-88
2022/07/26 12:21:45;;;;;;;6.40;1.30;;;20.10;99.90;;;;;;4968808;28;20460;-88
2022/07/26 12:24:12;;;;;;;5.60;1.33;;;20.00;99.90;;;;;;4952319;28;20113;-88
2022/07/26 12:26:39;;;;;;;5.30;1.33;;;20.10;99.90;;;;;;4955303;28;20511;-91
2022/07/26 12:29:23;;;;;;;8.48;1.50;;;20.20;99.90;;;;;;4953339;28;20047;-89
2022/07/26 12:32:07;;;;;;;11.32;1.88;;;20.20;99.90;;;;;;4951823;28;20050;-90
2022/07/26 12:34:34;;;;;;;7.05;1.48;;;20.10;99.90;;;;;;4968663;28;20079;-89
2022/07/26 12:37:11;;;;;;;6.65;1.60;;;19.90;99.90;;;;;;4971223;28;20047;-88
2022/07/26 12:39:38;;;;;;;8.13;1.50;;;19.80;99.90;;;;;;4938290;28;20043;-89
2022/07/26 12:42:21;;;;;;;8.75;1.90;;;19.80;99.90;;;;;;4952271;28;20038;-88
2022/07/26 12:44:47;;;;;;;7.68;1.92;;;19.80;99.90;;;;;;4967400;28;20050;-87
2022/07/26 12:47:13;;;;;;;7.90;2.10;;;19.80;99.90;;;;;;4938906;28;20034;-88